Decoded Metar for SBPA (PORTO ALEGRE in BRAZIL) (IATA:POA) | Meteo·Mobile Aviation Weather
aviador You're here:

SBPA Decoded Metar

PORTO ALEGRE in BRAZIL
Report Time2018-10-20 15:00:00
UTC Time2018-10-20 16:44:39
Flight Rules Old
Wind120° at 06 kt
W.Decomp.*RWY 11: 5.4 kt HW 2.6 kt RCW
W.Rank120° ranks 3
Current wind is below 120° avg. (7.8)
Visibility9999 m
Phenomena:N/A
Clouds:Few 045 Hf
Broken 060 Hf
Expected CloudBase > 4,800 ft AGL from Temp-Dew spread
Ceiling6,000 ft
Temp21°C (ISA +6)
Dew Point09°C (46% RH)
AAT18.6°C
QNH1022 hPa
Density Alt568 ft
Elevation10 ft
Report Wrong Elevation
Raw Report
METAR SBPA 201500Z 12006KT 070V170 9999 FEW045 BKN060 21/09 Q1022=

Extra information for SBPA:More info

Metar Taf Metar & Taf Last 4 Metars F.Rules Stats Wind Profile Meteogram Temp Stats Airport Information Weather charts Add Link Nearby VenuesMetar ALERT Operation Metar Decoded Social comments